Terminal Aerodrome Forecast
Issued by NWS

Home | Current Version | Previous Version | Graphics & Text | Print | Product List | Glossary On
Versions: 1 2 3 4 5 6 7 8 9 10 11 12 13 14 15 16 17 18
000
FTUS43 KMPX 161739
TAFAXN
TAF
KAXN 161739Z 1618/1718 26014KT P6SM -SHRA SCT015 BKN040
      TEMPO 1618/1622 BKN015
     FM162200 29012KT P6SM BKN025
     FM170000 28009KT P6SM SCT025=

USA.gov is the U.S. government's official web portal to all federal, state and local government web resources and services.